<?xml version="1.0" encoding="utf-8"?>
<gpx xmlns:xsi="http://www.w3.org/2001/XMLSchema-instance" xmlns:xsd="http://www.w3.org/2001/XMLSchema" version="1.1" creator="Shapelink.com" xmlns="http://www.topografix.com/GPX/1/1" xmlns:gpxtpx="http://www.garmin.com/xmlschemas/TrackPointExtension/v1">
  <metadata>
    <name>Radfahren 2.47 km, 2011-05-17</name>
    <desc></desc>
    <author><name>Jessica Ternander</name></author> 
    <time>2011-05-17T17:00:04Z</time>
  </metadata>
  <trk>
    <name>Radfahren 2.47 km, 2011-05-17</name>
    <trkseg>
      <trkpt lat="59.306485" lon="18.0877009">
        <ele>28.0155</ele>
        <time>2011-05-17T17:00:04Z</time>
      </trkpt>
      <trkpt lat="59.3065046" lon="18.0878759">
        <ele>26.5736</ele>
        <time>2011-05-17T17:00:10Z</time>
      </trkpt>
      <trkpt lat="59.3065104" lon="18.0882215">
        <ele>26.5736</ele>
        <time>2011-05-17T17:00:15Z</time>
      </trkpt>
      <trkpt lat="59.3065711" lon="18.0887213">
        <ele>22.2476</ele>
        <time>2011-05-17T17:00:21Z</time>
      </trkpt>
      <trkpt lat="59.3066259" lon="18.0890992">
        <ele>20.325</ele>
        <time>2011-05-17T17:00:25Z</time>
      </trkpt>
      <trkpt lat="59.3067749" lon="18.089404">
        <ele>20.8057</ele>
        <time>2011-05-17T17:00:29Z</time>
      </trkpt>
      <trkpt lat="59.3067175" lon="18.089474">
        <ele>25.6123</ele>
        <time>2011-05-17T17:00:33Z</time>
      </trkpt>
      <trkpt lat="59.3068942" lon="18.0894473">
        <ele>27.0543</ele>
        <time>2011-05-17T17:00:38Z</time>
      </trkpt>
      <trkpt lat="59.3069985" lon="18.0895855">
        <ele>21.767</ele>
        <time>2011-05-17T17:00:40Z</time>
      </trkpt>
      <trkpt lat="59.3071895" lon="18.0900308">
        <ele>11.6732</ele>
        <time>2011-05-17T17:00:45Z</time>
      </trkpt>
      <trkpt lat="59.3072412" lon="18.0901065">
        <ele>12.1538</ele>
        <time>2011-05-17T17:00:46Z</time>
      </trkpt>
      <trkpt lat="59.3073123" lon="18.090239">
        <ele>11.6732</ele>
        <time>2011-05-17T17:00:48Z</time>
      </trkpt>
      <trkpt lat="59.3073598" lon="18.0904864">
        <ele>16.4797</ele>
        <time>2011-05-17T17:00:53Z</time>
      </trkpt>
      <trkpt lat="59.3074211" lon="18.0906066">
        <ele>15.5184</ele>
        <time>2011-05-17T17:00:55Z</time>
      </trkpt>
      <trkpt lat="59.3074858" lon="18.0906884">
        <ele>13.1151</ele>
        <time>2011-05-17T17:00:57Z</time>
      </trkpt>
      <trkpt lat="59.3076081" lon="18.0910415">
        <ele>13.1151</ele>
        <time>2011-05-17T17:01:02Z</time>
      </trkpt>
      <trkpt lat="59.3076483" lon="18.0912091">
        <ele>17.4412</ele>
        <time>2011-05-17T17:01:04Z</time>
      </trkpt>
      <trkpt lat="59.3077723" lon="18.0912274">
        <ele>14.557</ele>
        <time>2011-05-17T17:01:08Z</time>
      </trkpt>
      <trkpt lat="59.3079363" lon="18.0909899">
        <ele>17.4412</ele>
        <time>2011-05-17T17:01:13Z</time>
      </trkpt>
      <trkpt lat="59.3080363" lon="18.0912414">
        <ele>14.0764</ele>
        <time>2011-05-17T17:01:16Z</time>
      </trkpt>
      <trkpt lat="59.3080677" lon="18.0913307">
        <ele>15.5184</ele>
        <time>2011-05-17T17:01:17Z</time>
      </trkpt>
      <trkpt lat="59.3083095" lon="18.0918891">
        <ele>25.6123</ele>
        <time>2011-05-17T17:01:24Z</time>
      </trkpt>
      <trkpt lat="59.3084445" lon="18.0922024">
        <ele>30.8995</ele>
        <time>2011-05-17T17:01:29Z</time>
      </trkpt>
      <trkpt lat="59.3085191" lon="18.0924165">
        <ele>35.7061</ele>
        <time>2011-05-17T17:01:33Z</time>
      </trkpt>
      <trkpt lat="59.3084927" lon="18.092712">
        <ele>28.4962</ele>
        <time>2011-05-17T17:01:37Z</time>
      </trkpt>
      <trkpt lat="59.3085543" lon="18.0932702">
        <ele>25.6123</ele>
        <time>2011-05-17T17:01:43Z</time>
      </trkpt>
      <trkpt lat="59.3086591" lon="18.0935367">
        <ele>21.2864</ele>
        <time>2011-05-17T17:01:48Z</time>
      </trkpt>
      <trkpt lat="59.3088268" lon="18.0937931">
        <ele>15.0377</ele>
        <time>2011-05-17T17:01:53Z</time>
      </trkpt>
      <trkpt lat="59.3088705" lon="18.0940352">
        <ele>15.999</ele>
        <time>2011-05-17T17:01:57Z</time>
      </trkpt>
      <trkpt lat="59.3088385" lon="18.0942062">
        <ele>18.4023</ele>
        <time>2011-05-17T17:01:59Z</time>
      </trkpt>
      <trkpt lat="59.3086489" lon="18.094894">
        <ele>19.8444</ele>
        <time>2011-05-17T17:02:05Z</time>
      </trkpt>
      <trkpt lat="59.3085603" lon="18.0953167">
        <ele>13.1151</ele>
        <time>2011-05-17T17:02:09Z</time>
      </trkpt>
      <trkpt lat="59.3085334" lon="18.0956715">
        <ele>8.30859</ele>
        <time>2011-05-17T17:02:12Z</time>
      </trkpt>
      <trkpt lat="59.3087192" lon="18.0966279">
        <ele>3.50195</ele>
        <time>2011-05-17T17:02:22Z</time>
      </trkpt>
      <trkpt lat="59.3087649" lon="18.0968868">
        <ele>3.98267</ele>
        <time>2011-05-17T17:02:25Z</time>
      </trkpt>
      <trkpt lat="59.3087653" lon="18.0970828">
        <ele>8.78918</ele>
        <time>2011-05-17T17:02:28Z</time>
      </trkpt>
      <trkpt lat="59.3087659" lon="18.0971531">
        <ele>12.1538</ele>
        <time>2011-05-17T17:02:30Z</time>
      </trkpt>
      <trkpt lat="59.3089319" lon="18.0971641">
        <ele>21.767</ele>
        <time>2011-05-17T17:02:36Z</time>
      </trkpt>
      <trkpt lat="59.3092098" lon="18.0972094">
        <ele>32.3416</ele>
        <time>2011-05-17T17:02:43Z</time>
      </trkpt>
      <trkpt lat="59.3093345" lon="18.0972396">
        <ele>35.7061</ele>
        <time>2011-05-17T17:02:46Z</time>
      </trkpt>
      <trkpt lat="59.309581" lon="18.0974527">
        <ele>29.9381</ele>
        <time>2011-05-17T17:02:51Z</time>
      </trkpt>
      <trkpt lat="59.3096861" lon="18.0975727">
        <ele>27.0543</ele>
        <time>2011-05-17T17:02:53Z</time>
      </trkpt>
      <trkpt lat="59.310156" lon="18.0979198">
        <ele>22.7283</ele>
        <time>2011-05-17T17:03:02Z</time>
      </trkpt>
      <trkpt lat="59.3102924" lon="18.09797">
        <ele>23.6896</ele>
        <time>2011-05-17T17:03:05Z</time>
      </trkpt>
      <trkpt lat="59.3106623" lon="18.0982672">
        <ele>21.2864</ele>
        <time>2011-05-17T17:03:12Z</time>
      </trkpt>
      <trkpt lat="59.3107058" lon="18.0982561">
        <ele>21.2864</ele>
        <time>2011-05-17T17:03:13Z</time>
      </trkpt>
      <trkpt lat="59.3108534" lon="18.0982989">
        <ele>21.2864</ele>
        <time>2011-05-17T17:03:16Z</time>
      </trkpt>
      <trkpt lat="59.3112158" lon="18.0986502">
        <ele>28.0155</ele>
        <time>2011-05-17T17:03:23Z</time>
      </trkpt>
      <trkpt lat="59.311319" lon="18.0987424">
        <ele>30.8995</ele>
        <time>2011-05-17T17:03:25Z</time>
      </trkpt>
      <trkpt lat="59.3116826" lon="18.0990138">
        <ele>35.7061</ele>
        <time>2011-05-17T17:03:32Z</time>
      </trkpt>
      <trkpt lat="59.3118489" lon="18.0990984">
        <ele>35.7061</ele>
        <time>2011-05-17T17:03:35Z</time>
      </trkpt>
      <trkpt lat="59.3120022" lon="18.0991458">
        <ele>39.0707</ele>
        <time>2011-05-17T17:03:38Z</time>
      </trkpt>
      <trkpt lat="59.3123078" lon="18.0992419">
        <ele>40.5128</ele>
        <time>2011-05-17T17:03:44Z</time>
      </trkpt>
      <trkpt lat="59.3125614" lon="18.0994156">
        <ele>37.6287</ele>
        <time>2011-05-17T17:03:49Z</time>
      </trkpt>
      <trkpt lat="59.3127463" lon="18.0995451">
        <ele>36.1868</ele>
        <time>2011-05-17T17:03:53Z</time>
      </trkpt>
      <trkpt lat="59.3129458" lon="18.0997017">
        <ele>26.5736</ele>
        <time>2011-05-17T17:03:58Z</time>
      </trkpt>
      <trkpt lat="59.3130742" lon="18.099739">
        <ele>22.7283</ele>
        <time>2011-05-17T17:04:01Z</time>
      </trkpt>
      <trkpt lat="59.3133699" lon="18.0998253">
        <ele>15.999</ele>
        <time>2011-05-17T17:04:08Z</time>
      </trkpt>
      <trkpt lat="59.3135288" lon="18.0999727">
        <ele>12.1538</ele>
        <time>2011-05-17T17:04:12Z</time>
      </trkpt>
      <trkpt lat="59.3137092" lon="18.1002758">
        <ele>8.30859</ele>
        <time>2011-05-17T17:04:16Z</time>
      </trkpt>
      <trkpt lat="59.313803" lon="18.1006806">
        <ele>5.42456</ele>
        <time>2011-05-17T17:04:20Z</time>
      </trkpt>
      <trkpt lat="59.3138018" lon="18.1007902">
        <ele>4.94385</ele>
        <time>2011-05-17T17:04:21Z</time>
      </trkpt>
      <trkpt lat="59.3138314" lon="18.1015807">
        <ele>3.02124</ele>
        <time>2011-05-17T17:04:29Z</time>
      </trkpt>
      <trkpt lat="59.3138464" lon="18.1023669">
        <ele>3.02124</ele>
        <time>2011-05-17T17:04:38Z</time>
      </trkpt>
      <trkpt lat="59.3138398" lon="18.1032755">
        <ele>3.98267</ele>
        <time>2011-05-17T17:04:49Z</time>
      </trkpt>
      <trkpt lat="59.3137341" lon="18.1039738">
        <ele>4.46326</ele>
        <time>2011-05-17T17:04:57Z</time>
      </trkpt>
      <trkpt lat="59.3136009" lon="18.1044966">
        <ele>4.94385</ele>
        <time>2011-05-17T17:05:03Z</time>
      </trkpt>
      <trkpt lat="59.3133615" lon="18.1053386">
        <ele>5.42456</ele>
        <time>2011-05-17T17:05:12Z</time>
      </trkpt>
      <trkpt lat="59.3131669" lon="18.1058423">
        <ele>4.94385</ele>
        <time>2011-05-17T17:05:17Z</time>
      </trkpt>
      <trkpt lat="59.3129869" lon="18.106341">
        <ele>9.2699</ele>
        <time>2011-05-17T17:05:22Z</time>
      </trkpt>
      <trkpt lat="59.3128902" lon="18.1066684">
        <ele>14.0764</ele>
        <time>2011-05-17T17:05:26Z</time>
      </trkpt>
      <trkpt lat="59.3128219" lon="18.1069352">
        <ele>19.3638</ele>
        <time>2011-05-17T17:05:30Z</time>
      </trkpt>
      <trkpt lat="59.3123896" lon="18.1072428">
        <ele>15.999</ele>
        <time>2011-05-17T17:05:35Z</time>
      </trkpt>
      <trkpt lat="59.3121399" lon="18.107289">
        <ele>14.557</ele>
        <time>2011-05-17T17:05:39Z</time>
      </trkpt>
      <trkpt lat="59.3119941" lon="18.1071399">
        <ele>17.4412</ele>
        <time>2011-05-17T17:05:42Z</time>
      </trkpt>
      <trkpt lat="59.3118784" lon="18.106889">
        <ele>18.4023</ele>
        <time>2011-05-17T17:05:45Z</time>
      </trkpt>
      <trkpt lat="59.3117013" lon="18.1065996">
        <ele>14.0764</ele>
        <time>2011-05-17T17:05:49Z</time>
      </trkpt>
      <trkpt lat="59.3115786" lon="18.1062099">
        <ele>9.2699</ele>
        <time>2011-05-17T17:05:53Z</time>
      </trkpt>
      <trkpt lat="59.311571" lon="18.1059846">
        <ele>7.34717</ele>
        <time>2011-05-17T17:05:55Z</time>
      </trkpt>
      <trkpt lat="59.3115698" lon="18.1057644">
        <ele>6.38586</ele>
        <time>2011-05-17T17:05:57Z</time>
      </trkpt>
      <trkpt lat="59.3114641" lon="18.1055155">
        <ele>3.98267</ele>
        <time>2011-05-17T17:06:01Z</time>
      </trkpt>
      <trkpt lat="59.3113113" lon="18.10558">
        <ele>3.02124</ele>
        <time>2011-05-17T17:06:04Z</time>
      </trkpt>
      <trkpt lat="59.3109585" lon="18.105884">
        <ele>2.54065</ele>
        <time>2011-05-17T17:06:10Z</time>
      </trkpt>
      <trkpt lat="59.3107176" lon="18.1059259">
        <ele>1.57935</ele>
        <time>2011-05-17T17:06:14Z</time>
      </trkpt>
      <trkpt lat="59.3106123" lon="18.1058179">
        <ele>1.57935</ele>
        <time>2011-05-17T17:06:16Z</time>
      </trkpt>
      <trkpt lat="59.3101462" lon="18.1052287">
        <ele>3.98267</ele>
        <time>2011-05-17T17:06:26Z</time>
      </trkpt>
      <trkpt lat="59.3098676" lon="18.1049663">
        <ele>2.54065</ele>
        <time>2011-05-17T17:06:31Z</time>
      </trkpt>
      <trkpt lat="59.3097371" lon="18.1048969">
        <ele>2.06006</ele>
        <time>2011-05-17T17:06:33Z</time>
      </trkpt>
      <trkpt lat="59.3093694" lon="18.104905">
        <ele>0.618042</ele>
        <time>2011-05-17T17:06:38Z</time>
      </trkpt>
      <trkpt lat="59.3092318" lon="18.104986">
        <ele>0.137451</ele>
        <time>2011-05-17T17:06:40Z</time>
      </trkpt>
      <trkpt lat="59.3087653" lon="18.1054065">
        <ele>0.618042</ele>
        <time>2011-05-17T17:06:48Z</time>
      </trkpt>
      <trkpt lat="59.3084496" lon="18.1057733">
        <ele>0.137451</ele>
        <time>2011-05-17T17:06:54Z</time>
      </trkpt>
      <trkpt lat="59.3082844" lon="18.1062141">
        <ele>0</ele>
        <time>2011-05-17T17:06:59Z</time>
      </trkpt>
      <trkpt lat="59.308126" lon="18.1070622">
        <ele>0.618042</ele>
        <time>2011-05-17T17:07:09Z</time>
      </trkpt>
      <trkpt lat="59.3080241" lon="18.1075361">
        <ele>0.618042</ele>
        <time>2011-05-17T17:07:14Z</time>
      </trkpt>
      <trkpt lat="59.3079443" lon="18.1079154">
        <ele>1.09863</ele>
        <time>2011-05-17T17:07:18Z</time>
      </trkpt>
      <trkpt lat="59.3079157" lon="18.1081971">
        <ele>1.09863</ele>
        <time>2011-05-17T17:07:21Z</time>
      </trkpt>
      <trkpt lat="59.3078495" lon="18.1086747">
        <ele>1.09863</ele>
        <time>2011-05-17T17:07:27Z</time>
      </trkpt>
      <trkpt lat="59.3078411" lon="18.1087773">
        <ele>1.09863</ele>
        <time>2011-05-17T17:07:31Z</time>
      </trkpt>
      <trkpt lat="59.3078349" lon="18.1087674">
        <ele>1.57935</ele>
        <time>2011-05-17T17:07:37Z</time>
      </trkpt>
      <trkpt lat="59.3078317" lon="18.1088089">
        <ele>4.94385</ele>
        <time>2011-05-17T17:08:56Z</time>
      </trkpt>
      <trkpt lat="59.3078361" lon="18.1087963">
        <ele>3.50195</ele>
        <time>2011-05-17T17:09:05Z</time>
      </trkpt>
      <trkpt lat="59.3078306" lon="18.108783">
        <ele>4.46326</ele>
        <time>2011-05-17T17:09:42Z</time>
      </trkpt>
    </trkseg>
  </trk>
</gpx>